• Join FlightAware (Why Join?)
  • Login
  • US Flag 
05:47PM EDT


 

Airport Tracker/Info


-or-


 

Live Flight TrackerFlight Track Log ✈ N55SQ ✈ 23-May-2012 ✈ KCLE - KBMI

Flight Track Log - Related Links

Times and Time Zones

All times are in EDT time to prevent confusion due to time zone crossing. See the N55SQ flight status page for this flight to view local times or setup timezone preferences in your user account.

Time Position Orientation Groundspeed Altitude Reporting Facility
EDT Latitude Longitude Course Direction KTS MPH feet Rate Location/Type
10:49AM 41.3961 -81.8786 261° West 185 213 1,700  Level Cleveland Center
10:54AM 41.3253 -82.4717 261° West 336 387 15,500 2,340 Climbing Cleveland Center
10:55AM 41.3106 -82.5983 262° West 341 392 17,500 1,860 Climbing Cleveland Center
10:56AM 41.2981 -82.7197 260° West 346 398 19,200 1,440 Climbing Cleveland Center
10:57AM 41.2808 -82.8517 261° West 356 410 20,400 1,140 Climbing Cleveland Center
10:58AM 41.2633 -82.9919 260° West 375 432 21,500 1,260 Climbing Cleveland Center
10:59AM 41.2456 -83.1322 261° West 390 449 23,000 1,440 Climbing Cleveland Center
11:00AM 41.2278 -83.2806 261° West 401 461 24,400 1,440 Climbing Cleveland Center
11:01AM 41.2094 -83.4289 262° West 407 468 25,900 1,500 Climbing Cleveland Center
11:02AM 41.1933 -83.5744 260° West 407 468 27,400 1,440 Climbing Cleveland Center
11:04AM 41.1567 -83.8439 261° West 389 448 30,400 1,440 Climbing Chicago Center
11:05AM 41.1403 -83.9833 259° West 389 448 31,900 780 Climbing Chicago Center
11:06AM 41.1181 -84.1342 261° West 403 464 32,000  Climbing Chicago Center
11:07AM 41.0967 -84.3042 259° West 425 489 32,000  Level Chicago Center
11:08AM 41.0728 -84.4739 261° West 452 520 32,000  Level Chicago Center
11:09AM 41.0525 -84.6408 259° West 458 527 32,000  Level Chicago Center
11:10AM 41.0297 -84.7994 260° West 472 543 32,000  Level Chicago Center
11:11AM 41.0072 -84.9661 260° West 472 543 32,000  Level Chicago Center
11:12AM 40.9842 -85.1328 261° West 472 543 32,000  Level Chicago Center
11:13AM 40.9619 -85.3239 260° West 472 543 32,000  Level Chicago Center
11:14AM 40.9406 -85.4903 261° West 471 542 32,000  Level Chicago Center
11:15AM 40.9211 -85.6592 260° West 471 542 32,000  Level Chicago Center
11:16AM 40.8994 -85.8281 262° West 471 542 32,000 -420 Level Chicago Center
11:17AM 40.8831 -85.9744 261° West 462 532 31,200 -1,320 Descending Chicago Center
11:18AM 40.8628 -86.1375 262° West 457 526 29,400 -1,620 Descending Chicago Center
11:19AM 40.8444 -86.3031 260° West 452 520 28,000 -720 Descending Chicago Center
11:20AM 40.8197 -86.4828 261° West 452 520 28,000  Level Chicago Center
11:21AM 40.7992 -86.6592 260° West 472 543 28,000  Level Chicago Center
11:22AM 40.7778 -86.8217 260° West 477 549 28,000 -480 Level Chicago Center
11:23AM 40.7544 -86.9925 259° West 477 549 27,100 -1,200 Descending Chicago Center
11:24AM 40.7306 -87.1606 259° West 471 542 25,600 -1,800 Descending Chicago Center
11:25AM 40.7064 -87.3231 261° West 471 542 23,500 -2,100 Descending Chicago Center
11:26AM 40.6864 -87.4881 259° West 465 535 21,500 -2,220 Descending Chicago Center
11:27AM 40.6639 -87.6419 260° West 454 522 19,100 -2,220 Descending Chicago Center
11:28AM 40.6450 -87.7875 259° West 429 494 17,100 -2,100 Descending Chicago Center
11:29AM 40.6239 -87.9247 259° West 407 468 15,000 -2,100 Descending Chicago Center
11:30AM 40.6047 -88.0592 259° West 390 449 13,000 -1,980 Descending Chicago Center
11:31AM 40.5853 -88.1936 259° West 378 435 11,100 -1,020 Descending Chicago Center
11:32AM 40.5656 -88.3250 259° West 373 429 11,000 -300 Descending Chicago Center
11:33AM 40.5481 -88.4483 259° West 367 422 10,500 -1,080 Descending Chicago Center
11:34AM 40.5319 -88.5550 258° West 335 386 8,900 -2,100 Descending Chicago Center
11:35AM 40.5161 -88.6536 262° West 302 348 6,400 -2,160 Descending Chicago Center
11:36AM 40.5061 -88.7492 292° West 283 326 4,600 -1,500 Descending Chicago Center
11:37AM 40.5294 -88.8256 273° West 246 283 3,400 -1,200 Descending Chicago Center
11:38AM 40.5317 -88.8856 229° Southwest 229 264 2,200 -960 Descending Chicago Center
11:39AM 40.5047 -88.9267 229° Southwest 151 174 1,500 4,380 Descending Chicago Center
11:40AM 40.4778 -88.9678 231° Southwest 151 174 11,000 4,740 Climbing Chicago Center
11:41AM 40.4572 -89.0008 231° Southwest 151 174 11,000  Level Chicago Center